createdAt,value
2023-04-23T00:03:12.988Z,11.27
2023-04-23T00:13:16.924Z,11.50
2023-04-23T00:23:21.494Z,12.25
2023-04-23T00:33:24.704Z,12.77
2023-04-23T00:43:29.558Z,14.57
2023-04-23T00:53:32.965Z,14.77
2023-04-23T01:03:39.410Z,14.52
2023-04-23T01:13:43.351Z,14.70
2023-04-23T01:23:47.953Z,14.23
2023-04-23T01:33:53.416Z,12.30
2023-04-23T01:43:58.703Z,11.70
2023-04-23T01:54:02.055Z,9.80
2023-04-23T02:04:06.640Z,7.70
2023-04-23T02:14:10.920Z,6.50
2023-04-23T02:24:15.533Z,3.08
2023-04-23T02:34:18.777Z,2.45
2023-04-23T02:44:23.284Z,2.45
2023-04-23T02:54:26.638Z,2.72
2023-04-23T03:04:31.311Z,2.65
2023-04-23T03:14:34.489Z,2.50
2023-04-23T03:24:39.844Z,2.60
2023-04-23T03:34:43.540Z,1.90
2023-04-23T03:44:48.887Z,2.20
2023-04-23T03:54:52.481Z,2.20
2023-04-23T04:04:59.704Z,2.47
2023-04-23T04:15:03.699Z,2.20
2023-04-23T04:25:09.747Z,3.07
2023-04-23T04:35:14.198Z,2.50
2023-04-23T04:45:19.858Z,2.55
2023-04-23T04:55:23.229Z,2.50
2023-04-23T05:05:28.436Z,3.10
2023-04-23T05:15:31.567Z,2.70
2023-04-23T05:25:36.278Z,4.53
2023-04-23T05:35:39.495Z,3.70
2023-04-23T05:45:44.309Z,2.92
2023-04-23T05:55:47.493Z,3.08
2023-04-23T06:05:52.033Z,3.30
2023-04-23T06:15:55.320Z,2.80
2023-04-23T06:26:00.664Z,2.38
2023-04-23T06:36:03.856Z,1.88
2023-04-23T06:46:08.416Z,2.20
2023-04-23T06:56:11.574Z,1.60
2023-04-23T07:06:16.185Z,1.80
2023-04-23T07:16:21.703Z,1.83
2023-04-23T07:26:27.783Z,1.85
2023-04-23T07:36:31.334Z,2.25
2023-04-23T07:46:35.841Z,2.10
2023-04-23T07:56:39.273Z,1.80
2023-04-23T08:06:44.544Z,2.00
2023-04-23T08:16:47.738Z,2.00
2023-04-23T08:26:52.288Z,1.60
2023-04-23T08:36:55.615Z,2.28
2023-04-23T08:47:04.111Z,2.00
2023-04-23T08:57:08.767Z,1.88
2023-04-23T09:07:15.122Z,2.17
2023-04-23T09:17:19.890Z,1.95
2023-04-23T09:27:27.056Z,1.92
2023-04-23T09:37:30.752Z,2.33
2023-04-23T09:47:36.147Z,1.80
2023-04-23T09:57:39.863Z,1.80
2023-04-23T10:07:45.193Z,1.50
2023-04-23T10:17:48.982Z,1.60
2023-04-23T10:27:56.168Z,1.60
2023-04-23T10:37:59.904Z,1.73
2023-04-23T10:48:05.778Z,1.98
2023-04-23T10:58:09.479Z,1.60
2023-04-23T11:08:19.266Z,2.05
2023-04-23T11:18:25.337Z,1.90
2023-04-23T11:28:33.394Z,2.40
2023-04-23T11:38:36.851Z,2.25
2023-04-23T11:48:41.431Z,2.10
2023-04-23T11:58:44.527Z,1.95
2023-04-23T12:08:49.269Z,2.05
2023-04-23T12:18:55.244Z,1.85
2023-04-23T12:29:01.520Z,1.85
2023-04-23T12:39:25.710Z,2.10
2023-04-23T12:49:30.644Z,1.70
2023-04-23T12:59:34.469Z,1.85
2023-04-23T13:09:38.934Z,1.40
2023-04-23T13:19:42.366Z,1.50
2023-04-23T13:29:47.158Z,1.50
2023-04-23T13:39:50.365Z,1.92
2023-04-23T13:49:54.874Z,1.85
2023-04-23T13:59:58.492Z,1.50
2023-04-23T14:10:03.258Z,1.83
2023-04-23T14:20:07.738Z,1.20
2023-04-23T14:30:17.894Z,1.13
2023-04-23T14:40:21.115Z,0.77
2023-04-23T14:50:25.824Z,1.30
2023-04-23T15:00:29.198Z,0.80
2023-04-23T15:10:33.702Z,0.90
2023-04-23T15:20:36.899Z,1.00
2023-04-23T15:30:43.311Z,1.20
2023-04-23T15:40:46.546Z,0.95
2023-04-23T15:50:51.033Z,0.75
2023-04-23T16:00:54.825Z,1.30
2023-04-23T16:10:59.461Z,0.90
2023-04-23T16:21:02.612Z,1.10
2023-04-23T16:31:07.269Z,1.17
2023-04-23T16:41:10.516Z,0.90
2023-04-23T16:51:15.458Z,0.80
2023-04-23T17:01:19.099Z,0.60
2023-04-23T17:11:24.577Z,0.50
2023-04-23T17:21:27.721Z,0.50
2023-04-23T17:31:32.410Z,0.70
2023-04-23T17:41:35.803Z,0.80
2023-04-23T17:51:40.482Z,0.80
2023-04-23T18:01:44.032Z,0.85
2023-04-23T18:11:48.744Z,0.80
2023-04-23T18:21:54.808Z,0.80
2023-04-23T18:31:59.475Z,0.90
2023-04-23T18:42:03.051Z,1.02
2023-04-23T18:52:07.798Z,0.80
2023-04-23T19:02:16.436Z,0.70
2023-04-23T19:12:26.904Z,0.95
2023-04-23T19:22:30.105Z,1.00
2023-04-23T19:32:34.734Z,0.70
2023-04-23T19:42:38.082Z,0.95
2023-04-23T19:52:42.601Z,1.00
2023-04-23T20:02:46.162Z,0.80
2023-04-23T20:12:50.825Z,1.00
2023-04-23T20:22:53.940Z,1.00
2023-04-23T20:32:58.682Z,1.08
2023-04-23T20:43:01.895Z,1.00
2023-04-23T20:53:06.525Z,1.20
2023-04-23T21:03:09.844Z,0.93
2023-04-23T21:13:14.501Z,1.20
2023-04-23T21:23:17.640Z,1.07
2023-04-23T21:33:23.881Z,1.00
2023-04-23T21:43:27.082Z,1.33
2023-04-23T21:53:31.616Z,1.10
2023-04-23T22:03:38.436Z,1.20
2023-04-23T22:13:43.872Z,1.13
2023-04-23T22:23:47.091Z,1.20
2023-04-23T22:33:51.596Z,1.10
2023-04-23T22:43:55.150Z,0.80
2023-04-23T22:53:59.624Z,0.80
2023-04-23T23:04:02.780Z,0.60
2023-04-23T23:14:07.395Z,0.50
2023-04-23T23:24:10.679Z,0.60
2023-04-23T23:34:15.338Z,0.30
2023-04-23T23:44:18.572Z,0.50
2023-04-23T23:54:23.093Z,0.30
